aviador You're here:

LTCJ Decoded Metar

BATMAN in TURKEY
Report Time2017-08-22 02:50:00
UTC Time2017-08-22 03:18:21
Flight Rules vfr VFR
Wind360° at 03 kt
W.Decomp.*RWY 02: 2.7 kt HW 1.2 kt LCW
Visibility9999 m
Phenomena:N/A
Clouds:N/A
Expected CloudBase > 2,400 ft AGL from Temp-Dew spread
CeilingNone
Temp19°C (ISA +8)
Dew Point13°C (68% RH)
AAT18.8°C
QNH1007 hPa
Density Alt3,061 ft
Elevation1,772 ft
Report Wrong Elevation
Raw Report
LTCJ 220250Z 36003KT CAVOK 19/13 Q1007=

Extra information for LTCJ:More info

Metar Taf Metar & Taf Last 4 Metars F.Rules Stats Wind Profile Meteogram Temp Stats Airport Information Weather charts Add Link Nearby VenuesMetar ALERT Operation Metar Decoded Social comments